sensor_id;sensor_type;location;lat;lon;timestamp;P1;durP1;ratioP1;P2;durP2;ratioP2
12363;SDS011;6246;50.826;4.712;2022-10-16T00:00:37;1.63;;;1.47;;
12363;SDS011;6246;50.826;4.712;2022-10-16T00:03:04;2.47;;;1.87;;
12363;SDS011;6246;50.826;4.712;2022-10-16T00:05:30;2.23;;;1.90;;
12363;SDS011;6246;50.826;4.712;2022-10-16T00:07:56;1.50;;;1.40;;
12363;SDS011;6246;50.826;4.712;2022-10-16T00:10:22;1.93;;;1.83;;
12363;SDS011;6246;50.826;4.712;2022-10-16T00:12:49;1.60;;;1.50;;
12363;SDS011;6246;50.826;4.712;2022-10-16T00:15:15;1.87;;;1.70;;
12363;SDS011;6246;50.826;4.712;2022-10-16T00:17:41;1.57;;;1.23;;
12363;SDS011;6246;50.826;4.712;2022-10-16T00:20:07;2.97;;;2.00;;
12363;SDS011;6246;50.826;4.712;2022-10-16T00:22:33;2.20;;;1.50;;
12363;SDS011;6246;50.826;4.712;2022-10-16T00:24:59;2.93;;;2.00;;
12363;SDS011;6246;50.826;4.712;2022-10-16T00:27:25;2.03;;;1.83;;
12363;SDS011;6246;50.826;4.712;2022-10-16T00:29:51;1.63;;;1.37;;
12363;SDS011;6246;50.826;4.712;2022-10-16T00:32:18;1.40;;;1.30;;
12363;SDS011;6246;50.826;4.712;2022-10-16T00:34:44;2.00;;;1.80;;
12363;SDS011;6246;50.826;4.712;2022-10-16T00:37:10;1.83;;;1.47;;
12363;SDS011;6246;50.826;4.712;2022-10-16T00:39:36;2.17;;;1.93;;
12363;SDS011;6246;50.826;4.712;2022-10-16T00:42:02;2.03;;;1.53;;
12363;SDS011;6246;50.826;4.712;2022-10-16T00:44:48;1.90;;;1.60;;
12363;SDS011;6246;50.826;4.712;2022-10-16T00:47:17;1.90;;;1.50;;
12363;SDS011;6246;50.826;4.712;2022-10-16T00:49:44;2.17;;;1.67;;
12363;SDS011;6246;50.826;4.712;2022-10-16T00:52:11;1.07;;;1.00;;
12363;SDS011;6246;50.826;4.712;2022-10-16T00:54:37;1.70;;;1.53;;
12363;SDS011;6246;50.826;4.712;2022-10-16T00:57:05;2.10;;;1.20;;
12363;SDS011;6246;50.826;4.712;2022-10-16T00:59:33;2.33;;;1.50;;
12363;SDS011;6246;50.826;4.712;2022-10-16T01:01:59;1.50;;;1.40;;
12363;SDS011;6246;50.826;4.712;2022-10-16T01:04:26;1.57;;;1.47;;
12363;SDS011;6246;50.826;4.712;2022-10-16T01:09:24;2.60;;;1.40;;
12363;SDS011;6246;50.826;4.712;2022-10-16T01:12:15;2.13;;;1.60;;
12363;SDS011;6246;50.826;4.712;2022-10-16T01:17:12;2.10;;;1.80;;
12363;SDS011;6246;50.826;4.712;2022-10-16T01:19:50;1.87;;;1.77;;
12363;SDS011;6246;50.826;4.712;2022-10-16T01:22:17;1.63;;;1.20;;
12363;SDS011;6246;50.826;4.712;2022-10-16T01:24:45;1.67;;;1.57;;
12363;SDS011;6246;50.826;4.712;2022-10-16T01:27:15;2.17;;;1.40;;
12363;SDS011;6246;50.826;4.712;2022-10-16T01:29:52;2.17;;;1.63;;
12363;SDS011;6246;50.826;4.712;2022-10-16T01:32:33;1.40;;;1.30;;
12363;SDS011;6246;50.826;4.712;2022-10-16T01:35:02;1.57;;;1.47;;
12363;SDS011;6246;50.826;4.712;2022-10-16T01:37:32;1.40;;;1.30;;
12363;SDS011;6246;50.826;4.712;2022-10-16T01:39:59;2.43;;;1.40;;
12363;SDS011;6246;50.826;4.712;2022-10-16T01:42:28;1.50;;;1.40;;
12363;SDS011;6246;50.826;4.712;2022-10-16T01:44:56;1.73;;;1.57;;
12363;SDS011;6246;50.826;4.712;2022-10-16T01:47:23;1.33;;;1.23;;
12363;SDS011;6246;50.826;4.712;2022-10-16T01:49:50;1.20;;;1.10;;
12363;SDS011;6246;50.826;4.712;2022-10-16T01:52:17;1.83;;;1.37;;
12363;SDS011;6246;50.826;4.712;2022-10-16T01:54:45;1.50;;;1.23;;
12363;SDS011;6246;50.826;4.712;2022-10-16T01:57:13;1.30;;;1.20;;
12363;SDS011;6246;50.826;4.712;2022-10-16T01:59:42;1.17;;;1.10;;
12363;SDS011;6246;50.826;4.712;2022-10-16T02:02:09;1.40;;;1.13;;
12363;SDS011;6246;50.826;4.712;2022-10-16T02:04:42;1.43;;;1.30;;
12363;SDS011;6246;50.826;4.712;2022-10-16T02:07:08;1.13;;;0.70;;
12363;SDS011;6246;50.826;4.712;2022-10-16T02:09:35;1.77;;;1.20;;
12363;SDS011;6246;50.826;4.712;2022-10-16T02:12:03;2.03;;;1.10;;
12363;SDS011;6246;50.826;4.712;2022-10-16T02:14:32;2.40;;;1.30;;
12363;SDS011;6246;50.826;4.712;2022-10-16T02:16:58;2.60;;;1.63;;
12363;SDS011;6246;50.826;4.712;2022-10-16T02:19:24;1.03;;;0.87;;
12363;SDS011;6246;50.826;4.712;2022-10-16T02:26:52;1.00;;;0.90;;
12363;SDS011;6246;50.826;4.712;2022-10-16T02:29:24;1.70;;;1.30;;
12363;SDS011;6246;50.826;4.712;2022-10-16T02:31:54;1.10;;;1.03;;
12363;SDS011;6246;50.826;4.712;2022-10-16T02:34:21;1.70;;;1.60;;
12363;SDS011;6246;50.826;4.712;2022-10-16T02:36:48;0.90;;;0.90;;
12363;SDS011;6246;50.826;4.712;2022-10-16T02:39:15;2.17;;;1.10;;
12363;SDS011;6246;50.826;4.712;2022-10-16T02:41:41;1.70;;;1.10;;
12363;SDS011;6246;50.826;4.712;2022-10-16T02:44:08;1.27;;;1.10;;
12363;SDS011;6246;50.826;4.712;2022-10-16T02:46:34;1.20;;;1.10;;
12363;SDS011;6246;50.826;4.712;2022-10-16T02:49:00;1.10;;;1.00;;
12363;SDS011;6246;50.826;4.712;2022-10-16T02:51:26;1.17;;;1.07;;
12363;SDS011;6246;50.826;4.712;2022-10-16T02:53:52;2.10;;;1.00;;
12363;SDS011;6246;50.826;4.712;2022-10-16T02:56:18;0.77;;;0.70;;
12363;SDS011;6246;50.826;4.712;2022-10-16T02:58:43;1.47;;;1.10;;
12363;SDS011;6246;50.826;4.712;2022-10-16T03:01:09;0.80;;;0.80;;
12363;SDS011;6246;50.826;4.712;2022-10-16T03:03:37;0.90;;;0.90;;
12363;SDS011;6246;50.826;4.712;2022-10-16T03:06:03;1.30;;;1.20;;
12363;SDS011;6246;50.826;4.712;2022-10-16T03:08:29;1.70;;;1.43;;
12363;SDS011;6246;50.826;4.712;2022-10-16T03:10:55;1.63;;;0.90;;
12363;SDS011;6246;50.826;4.712;2022-10-16T03:13:21;1.17;;;1.07;;
12363;SDS011;6246;50.826;4.712;2022-10-16T03:15:47;0.90;;;0.83;;
12363;SDS011;6246;50.826;4.712;2022-10-16T03:18:13;1.50;;;1.00;;
12363;SDS011;6246;50.826;4.712;2022-10-16T03:20:39;1.10;;;0.90;;
12363;SDS011;6246;50.826;4.712;2022-10-16T03:23:05;0.87;;;0.87;;
12363;SDS011;6246;50.826;4.712;2022-10-16T03:25:33;0.93;;;0.93;;
12363;SDS011;6246;50.826;4.712;2022-10-16T03:27:59;0.80;;;0.80;;
12363;SDS011;6246;50.826;4.712;2022-10-16T03:30:25;1.63;;;0.57;;
12363;SDS011;6246;50.826;4.712;2022-10-16T03:32:51;1.40;;;1.00;;
12363;SDS011;6246;50.826;4.712;2022-10-16T03:35:19;0.70;;;0.70;;
12363;SDS011;6246;50.826;4.712;2022-10-16T03:37:45;1.10;;;1.00;;
12363;SDS011;6246;50.826;4.712;2022-10-16T03:40:11;1.10;;;1.00;;
12363;SDS011;6246;50.826;4.712;2022-10-16T03:42:37;0.80;;;0.70;;
12363;SDS011;6246;50.826;4.712;2022-10-16T03:45:03;0.80;;;0.80;;
12363;SDS011;6246;50.826;4.712;2022-10-16T03:47:29;0.70;;;0.70;;
12363;SDS011;6246;50.826;4.712;2022-10-16T03:49:58;1.50;;;1.07;;
12363;SDS011;6246;50.826;4.712;2022-10-16T03:52:23;1.07;;;0.90;;
12363;SDS011;6246;50.826;4.712;2022-10-16T03:54:50;1.57;;;1.00;;
12363;SDS011;6246;50.826;4.712;2022-10-16T03:57:16;1.13;;;0.77;;
12363;SDS011;6246;50.826;4.712;2022-10-16T03:59:42;1.30;;;0.87;;
12363;SDS011;6246;50.826;4.712;2022-10-16T04:02:08;1.50;;;0.90;;
12363;SDS011;6246;50.826;4.712;2022-10-16T04:04:34;0.80;;;0.80;;
12363;SDS011;6246;50.826;4.712;2022-10-16T04:07:00;0.83;;;0.83;;
12363;SDS011;6246;50.826;4.712;2022-10-16T04:09:26;0.80;;;0.80;;
12363;SDS011;6246;50.826;4.712;2022-10-16T04:11:52;0.90;;;0.90;;
12363;SDS011;6246;50.826;4.712;2022-10-16T04:14:18;0.80;;;0.73;;
12363;SDS011;6246;50.826;4.712;2022-10-16T04:16:44;0.63;;;0.63;;
12363;SDS011;6246;50.826;4.712;2022-10-16T04:19:10;0.67;;;0.67;;
12363;SDS011;6246;50.826;4.712;2022-10-16T04:21:36;1.27;;;0.60;;
12363;SDS011;6246;50.826;4.712;2022-10-16T04:24:02;0.97;;;0.80;;
12363;SDS011;6246;50.826;4.712;2022-10-16T04:26:28;1.20;;;1.03;;
12363;SDS011;6246;50.826;4.712;2022-10-16T04:28:54;0.90;;;0.90;;
12363;SDS011;6246;50.826;4.712;2022-10-16T04:31:21;0.80;;;0.73;;
12363;SDS011;6246;50.826;4.712;2022-10-16T04:33:47;1.10;;;0.97;;
12363;SDS011;6246;50.826;4.712;2022-10-16T04:36:13;0.87;;;0.87;;
12363;SDS011;6246;50.826;4.712;2022-10-16T04:38:39;1.17;;;0.80;;
12363;SDS011;6246;50.826;4.712;2022-10-16T04:41:06;0.80;;;0.80;;
12363;SDS011;6246;50.826;4.712;2022-10-16T04:43:32;0.97;;;0.97;;
12363;SDS011;6246;50.826;4.712;2022-10-16T04:45:59;1.03;;;0.87;;
12363;SDS011;6246;50.826;4.712;2022-10-16T04:48:25;1.60;;;1.00;;
12363;SDS011;6246;50.826;4.712;2022-10-16T04:50:51;2.10;;;1.27;;
12363;SDS011;6246;50.826;4.712;2022-10-16T04:53:17;0.80;;;0.80;;
12363;SDS011;6246;50.826;4.712;2022-10-16T04:55:43;2.00;;;0.80;;
12363;SDS011;6246;50.826;4.712;2022-10-16T04:58:09;0.70;;;0.70;;
12363;SDS011;6246;50.826;4.712;2022-10-16T05:00:35;1.00;;;1.00;;
12363;SDS011;6246;50.826;4.712;2022-10-16T05:03:03;0.93;;;0.70;;
12363;SDS011;6246;50.826;4.712;2022-10-16T05:05:32;0.87;;;0.80;;
12363;SDS011;6246;50.826;4.712;2022-10-16T05:07:58;1.07;;;0.97;;
12363;SDS011;6246;50.826;4.712;2022-10-16T05:10:24;1.33;;;1.13;;
12363;SDS011;6246;50.826;4.712;2022-10-16T05:12:50;1.40;;;0.97;;
12363;SDS011;6246;50.826;4.712;2022-10-16T05:15:16;1.70;;;1.00;;
12363;SDS011;6246;50.826;4.712;2022-10-16T05:17:43;1.90;;;0.97;;
12363;SDS011;6246;50.826;4.712;2022-10-16T05:20:09;0.73;;;0.70;;
12363;SDS011;6246;50.826;4.712;2022-10-16T05:22:35;1.20;;;0.93;;
12363;SDS011;6246;50.826;4.712;2022-10-16T05:25:01;1.17;;;1.10;;
12363;SDS011;6246;50.826;4.712;2022-10-16T05:27:27;1.80;;;1.13;;
12363;SDS011;6246;50.826;4.712;2022-10-16T05:29:53;0.80;;;0.80;;
12363;SDS011;6246;50.826;4.712;2022-10-16T05:32:19;0.90;;;0.90;;
12363;SDS011;6246;50.826;4.712;2022-10-16T05:34:45;0.67;;;0.67;;
12363;SDS011;6246;50.826;4.712;2022-10-16T05:37:11;1.20;;;0.80;;
12363;SDS011;6246;50.826;4.712;2022-10-16T05:39:38;1.40;;;1.30;;
12363;SDS011;6246;50.826;4.712;2022-10-16T05:42:04;1.20;;;1.10;;
12363;SDS011;6246;50.826;4.712;2022-10-16T05:44:30;0.73;;;0.73;;
12363;SDS011;6246;50.826;4.712;2022-10-16T05:46:56;1.20;;;0.90;;
12363;SDS011;6246;50.826;4.712;2022-10-16T05:49:22;2.70;;;0.87;;
12363;SDS011;6246;50.826;4.712;2022-10-16T05:51:48;0.73;;;0.73;;
12363;SDS011;6246;50.826;4.712;2022-10-16T05:54:14;1.00;;;1.00;;
12363;SDS011;6246;50.826;4.712;2022-10-16T05:56:40;1.27;;;0.90;;
12363;SDS011;6246;50.826;4.712;2022-10-16T05:59:06;1.23;;;1.13;;
12363;SDS011;6246;50.826;4.712;2022-10-16T06:01:32;0.60;;;0.60;;
12363;SDS011;6246;50.826;4.712;2022-10-16T06:03:58;1.33;;;1.10;;
12363;SDS011;6246;50.826;4.712;2022-10-16T06:06:26;1.13;;;1.03;;
12363;SDS011;6246;50.826;4.712;2022-10-16T06:08:53;0.90;;;0.87;;
12363;SDS011;6246;50.826;4.712;2022-10-16T06:11:22;1.00;;;0.90;;
12363;SDS011;6246;50.826;4.712;2022-10-16T06:13:51;1.23;;;0.97;;
12363;SDS011;6246;50.826;4.712;2022-10-16T06:16:17;1.10;;;1.00;;
12363;SDS011;6246;50.826;4.712;2022-10-16T06:18:44;1.50;;;1.00;;
12363;SDS011;6246;50.826;4.712;2022-10-16T06:21:14;0.60;;;0.57;;
12363;SDS011;6246;50.826;4.712;2022-10-16T06:23:41;1.47;;;0.93;;
12363;SDS011;6246;50.826;4.712;2022-10-16T06:26:12;0.90;;;0.90;;
12363;SDS011;6246;50.826;4.712;2022-10-16T06:28:38;2.20;;;0.80;;
12363;SDS011;6246;50.826;4.712;2022-10-16T06:31:05;2.03;;;0.70;;
12363;SDS011;6246;50.826;4.712;2022-10-16T06:33:31;1.07;;;1.03;;
12363;SDS011;6246;50.826;4.712;2022-10-16T06:36:01;1.10;;;1.00;;
12363;SDS011;6246;50.826;4.712;2022-10-16T06:38:28;1.23;;;1.00;;
12363;SDS011;6246;50.826;4.712;2022-10-16T06:40:55;1.87;;;1.00;;
12363;SDS011;6246;50.826;4.712;2022-10-16T06:43:21;0.80;;;0.80;;
12363;SDS011;6246;50.826;4.712;2022-10-16T06:45:56;0.93;;;0.87;;
12363;SDS011;6246;50.826;4.712;2022-10-16T06:48:23;0.93;;;0.87;;
12363;SDS011;6246;50.826;4.712;2022-10-16T06:50:56;1.17;;;1.07;;
12363;SDS011;6246;50.826;4.712;2022-10-16T06:53:22;1.43;;;1.30;;
12363;SDS011;6246;50.826;4.712;2022-10-16T06:55:48;1.13;;;0.80;;
12363;SDS011;6246;50.826;4.712;2022-10-16T06:58:14;1.03;;;0.93;;
12363;SDS011;6246;50.826;4.712;2022-10-16T07:00:40;1.03;;;0.93;;
12363;SDS011;6246;50.826;4.712;2022-10-16T07:03:06;1.40;;;1.23;;
12363;SDS011;6246;50.826;4.712;2022-10-16T07:05:37;2.43;;;1.17;;
12363;SDS011;6246;50.826;4.712;2022-10-16T07:08:03;1.30;;;1.20;;
12363;SDS011;6246;50.826;4.712;2022-10-16T07:10:30;1.33;;;1.10;;
12363;SDS011;6246;50.826;4.712;2022-10-16T07:12:56;1.40;;;1.30;;
12363;SDS011;6246;50.826;4.712;2022-10-16T07:15:22;1.00;;;0.90;;
12363;SDS011;6246;50.826;4.712;2022-10-16T07:17:49;1.00;;;0.90;;
12363;SDS011;6246;50.826;4.712;2022-10-16T07:20:15;0.90;;;0.83;;
12363;SDS011;6246;50.826;4.712;2022-10-16T07:22:41;1.40;;;0.83;;
12363;SDS011;6246;50.826;4.712;2022-10-16T07:25:07;0.90;;;0.90;;
12363;SDS011;6246;50.826;4.712;2022-10-16T07:27:33;1.10;;;1.00;;
12363;SDS011;6246;50.826;4.712;2022-10-16T07:29:59;0.87;;;0.63;;
12363;SDS011;6246;50.826;4.712;2022-10-16T07:32:25;0.90;;;0.90;;
12363;SDS011;6246;50.826;4.712;2022-10-16T07:34:52;1.17;;;0.97;;
12363;SDS011;6246;50.826;4.712;2022-10-16T07:37:18;1.10;;;0.97;;
12363;SDS011;6246;50.826;4.712;2022-10-16T07:39:44;0.97;;;0.77;;
12363;SDS011;6246;50.826;4.712;2022-10-16T07:42:10;0.80;;;0.80;;
12363;SDS011;6246;50.826;4.712;2022-10-16T07:44:36;1.03;;;0.90;;
12363;SDS011;6246;50.826;4.712;2022-10-16T07:47:02;1.57;;;0.80;;
12363;SDS011;6246;50.826;4.712;2022-10-16T07:49:28;1.00;;;1.00;;
12363;SDS011;6246;50.826;4.712;2022-10-16T07:51:54;1.23;;;1.13;;
12363;SDS011;6246;50.826;4.712;2022-10-16T07:54:20;1.30;;;1.00;;
12363;SDS011;6246;50.826;4.712;2022-10-16T07:56:46;1.23;;;0.90;;
12363;SDS011;6246;50.826;4.712;2022-10-16T07:59:12;1.10;;;0.97;;
12363;SDS011;6246;50.826;4.712;2022-10-16T08:01:38;0.70;;;0.70;;
12363;SDS011;6246;50.826;4.712;2022-10-16T08:04:04;1.47;;;1.27;;
12363;SDS011;6246;50.826;4.712;2022-10-16T08:06:34;0.70;;;0.70;;
12363;SDS011;6246;50.826;4.712;2022-10-16T08:09:00;1.87;;;1.07;;
12363;SDS011;6246;50.826;4.712;2022-10-16T08:11:26;0.83;;;0.73;;
12363;SDS011;6246;50.826;4.712;2022-10-16T08:13:52;1.00;;;0.60;;
12363;SDS011;6246;50.826;4.712;2022-10-16T08:16:18;0.97;;;0.73;;
12363;SDS011;6246;50.826;4.712;2022-10-16T08:18:44;0.77;;;0.70;;
12363;SDS011;6246;50.826;4.712;2022-10-16T08:21:14;0.70;;;0.67;;
12363;SDS011;6246;50.826;4.712;2022-10-16T08:23:40;0.70;;;0.70;;
12363;SDS011;6246;50.826;4.712;2022-10-16T08:26:07;1.10;;;1.03;;
12363;SDS011;6246;50.826;4.712;2022-10-16T08:28:33;1.00;;;0.90;;
12363;SDS011;6246;50.826;4.712;2022-10-16T08:31:10;0.93;;;0.93;;
12363;SDS011;6246;50.826;4.712;2022-10-16T08:33:36;1.43;;;0.90;;
12363;SDS011;6246;50.826;4.712;2022-10-16T08:36:02;0.83;;;0.80;;
12363;SDS011;6246;50.826;4.712;2022-10-16T08:38:28;1.10;;;1.00;;
12363;SDS011;6246;50.826;4.712;2022-10-16T08:40:57;0.80;;;0.80;;
12363;SDS011;6246;50.826;4.712;2022-10-16T08:43:35;1.13;;;0.80;;
12363;SDS011;6246;50.826;4.712;2022-10-16T08:46:11;0.90;;;0.90;;
12363;SDS011;6246;50.826;4.712;2022-10-16T08:48:45;0.67;;;0.67;;
12363;SDS011;6246;50.826;4.712;2022-10-16T08:51:19;0.80;;;0.70;;
12363;SDS011;6246;50.826;4.712;2022-10-16T08:53:59;1.13;;;0.70;;
12363;SDS011;6246;50.826;4.712;2022-10-16T08:56:27;0.90;;;0.80;;
12363;SDS011;6246;50.826;4.712;2022-10-16T08:58:53;0.83;;;0.83;;
12363;SDS011;6246;50.826;4.712;2022-10-16T09:01:21;0.70;;;0.53;;
12363;SDS011;6246;50.826;4.712;2022-10-16T09:14:17;0.87;;;0.87;;
12363;SDS011;6246;50.826;4.712;2022-10-16T09:16:46;0.70;;;0.70;;
12363;SDS011;6246;50.826;4.712;2022-10-16T09:19:24;0.87;;;0.57;;
12363;SDS011;6246;50.826;4.712;2022-10-16T09:21:51;0.70;;;0.67;;
12363;SDS011;6246;50.826;4.712;2022-10-16T09:24:19;0.90;;;0.90;;
12363;SDS011;6246;50.826;4.712;2022-10-16T09:26:46;1.10;;;0.77;;
12363;SDS011;6246;50.826;4.712;2022-10-16T09:29:13;0.63;;;0.60;;
12363;SDS011;6246;50.826;4.712;2022-10-16T09:31:39;0.87;;;0.70;;
12363;SDS011;6246;50.826;4.712;2022-10-16T09:34:08;1.10;;;0.83;;
12363;SDS011;6246;50.826;4.712;2022-10-16T09:36:41;0.83;;;0.60;;
12363;SDS011;6246;50.826;4.712;2022-10-16T09:39:09;0.70;;;0.63;;
12363;SDS011;6246;50.826;4.712;2022-10-16T09:41:37;1.43;;;0.80;;
12363;SDS011;6246;50.826;4.712;2022-10-16T09:44:03;0.77;;;0.50;;
12363;SDS011;6246;50.826;4.712;2022-10-16T09:46:31;0.77;;;0.70;;
12363;SDS011;6246;50.826;4.712;2022-10-16T09:49:31;0.90;;;0.70;;
12363;SDS011;6246;50.826;4.712;2022-10-16T09:51:50;0.83;;;0.63;;
12363;SDS011;6246;50.826;4.712;2022-10-16T09:54:19;0.60;;;0.60;;
12363;SDS011;6246;50.826;4.712;2022-10-16T09:56:45;0.50;;;0.50;;
12363;SDS011;6246;50.826;4.712;2022-10-16T09:59:17;0.73;;;0.60;;
12363;SDS011;6246;50.826;4.712;2022-10-16T10:01:50;0.87;;;0.50;;
12363;SDS011;6246;50.826;4.712;2022-10-16T10:04:20;0.80;;;0.80;;
12363;SDS011;6246;50.826;4.712;2022-10-16T10:06:50;1.37;;;1.00;;
12363;SDS011;6246;50.826;4.712;2022-10-16T10:09:23;0.87;;;0.67;;
12363;SDS011;6246;50.826;4.712;2022-10-16T10:14:25;0.60;;;0.60;;
12363;SDS011;6246;50.826;4.712;2022-10-16T10:17:00;0.60;;;0.57;;
12363;SDS011;6246;50.826;4.712;2022-10-16T10:19:27;0.97;;;0.80;;
12363;SDS011;6246;50.826;4.712;2022-10-16T10:21:53;0.60;;;0.60;;
12363;SDS011;6246;50.826;4.712;2022-10-16T10:24:19;0.60;;;0.50;;
12363;SDS011;6246;50.826;4.712;2022-10-16T10:26:54;0.97;;;0.83;;
12363;SDS011;6246;50.826;4.712;2022-10-16T10:32:07;0.87;;;0.70;;
12363;SDS011;6246;50.826;4.712;2022-10-16T10:34:41;0.70;;;0.63;;
12363;SDS011;6246;50.826;4.712;2022-10-16T10:45:46;0.50;;;0.50;;
12363;SDS011;6246;50.826;4.712;2022-10-16T10:47:49;1.20;;;0.60;;
12363;SDS011;6246;50.826;4.712;2022-10-16T10:55:31;0.60;;;0.60;;
12363;SDS011;6246;50.826;4.712;2022-10-16T11:00:31;0.60;;;0.60;;
12363;SDS011;6246;50.826;4.712;2022-10-16T11:13:17;0.97;;;0.70;;
12363;SDS011;6246;50.826;4.712;2022-10-16T11:15:45;1.07;;;0.80;;
12363;SDS011;6246;50.826;4.712;2022-10-16T11:18:21;0.57;;;0.57;;
12363;SDS011;6246;50.826;4.712;2022-10-16T11:20:53;0.50;;;0.40;;
12363;SDS011;6246;50.826;4.712;2022-10-16T11:23:30;0.60;;;0.60;;
12363;SDS011;6246;50.826;4.712;2022-10-16T11:25:59;0.87;;;0.60;;
12363;SDS011;6246;50.826;4.712;2022-10-16T11:28:33;0.53;;;0.40;;
12363;SDS011;6246;50.826;4.712;2022-10-16T11:38:49;0.43;;;0.43;;
12363;SDS011;6246;50.826;4.712;2022-10-16T11:41:21;0.40;;;0.40;;
12363;SDS011;6246;50.826;4.712;2022-10-16T11:43:56;0.77;;;0.73;;
12363;SDS011;6246;50.826;4.712;2022-10-16T11:46:24;0.40;;;0.40;;
12363;SDS011;6246;50.826;4.712;2022-10-16T11:48:54;0.40;;;0.40;;
12363;SDS011;6246;50.826;4.712;2022-10-16T11:53:59;0.47;;;0.47;;
12363;SDS011;6246;50.826;4.712;2022-10-16T11:56:27;0.73;;;0.67;;
12363;SDS011;6246;50.826;4.712;2022-10-16T11:59:01;0.50;;;0.50;;
12363;SDS011;6246;50.826;4.712;2022-10-16T12:01:38;0.60;;;0.40;;
12363;SDS011;6246;50.826;4.712;2022-10-16T12:04:11;0.50;;;0.50;;
12363;SDS011;6246;50.826;4.712;2022-10-16T12:06:40;0.60;;;0.60;;
12363;SDS011;6246;50.826;4.712;2022-10-16T12:09:18;0.53;;;0.50;;
12363;SDS011;6246;50.826;4.712;2022-10-16T12:11:45;0.50;;;0.50;;
12363;SDS011;6246;50.826;4.712;2022-10-16T12:16:38;0.53;;;0.50;;
12363;SDS011;6246;50.826;4.712;2022-10-16T12:19:23;0.77;;;0.43;;
12363;SDS011;6246;50.826;4.712;2022-10-16T12:21:50;0.30;;;0.30;;
12363;SDS011;6246;50.826;4.712;2022-10-16T12:24:35;0.43;;;0.40;;
12363;SDS011;6246;50.826;4.712;2022-10-16T12:27:03;0.77;;;0.40;;
12363;SDS011;6246;50.826;4.712;2022-10-16T12:31:59;0.20;;;0.20;;
12363;SDS011;6246;50.826;4.712;2022-10-16T12:36:55;0.70;;;0.70;;
12363;SDS011;6246;50.826;4.712;2022-10-16T12:39:22;0.47;;;0.47;;
12363;SDS011;6246;50.826;4.712;2022-10-16T12:41:53;0.80;;;0.60;;
12363;SDS011;6246;50.826;4.712;2022-10-16T12:44:26;0.50;;;0.40;;
12363;SDS011;6246;50.826;4.712;2022-10-16T12:46:57;0.67;;;0.50;;
12363;SDS011;6246;50.826;4.712;2022-10-16T12:49:35;0.60;;;0.60;;
12363;SDS011;6246;50.826;4.712;2022-10-16T12:52:03;0.30;;;0.30;;
12363;SDS011;6246;50.826;4.712;2022-10-16T12:54:30;0.90;;;0.70;;
12363;SDS011;6246;50.826;4.712;2022-10-16T12:59:30;0.47;;;0.40;;
12363;SDS011;6246;50.826;4.712;2022-10-16T13:02:04;0.47;;;0.47;;
12363;SDS011;6246;50.826;4.712;2022-10-16T13:07:07;0.83;;;0.47;;
12363;SDS011;6246;50.826;4.712;2022-10-16T13:22:13;0.40;;;0.40;;
12363;SDS011;6246;50.826;4.712;2022-10-16T13:24:54;0.30;;;0.30;;
12363;SDS011;6246;50.826;4.712;2022-10-16T13:29:52;0.50;;;0.40;;
12363;SDS011;6246;50.826;4.712;2022-10-16T13:32:20;0.30;;;0.30;;
12363;SDS011;6246;50.826;4.712;2022-10-16T13:34:48;0.30;;;0.30;;
12363;SDS011;6246;50.826;4.712;2022-10-16T13:37:23;0.63;;;0.37;;
12363;SDS011;6246;50.826;4.712;2022-10-16T13:39:49;0.30;;;0.30;;
12363;SDS011;6246;50.826;4.712;2022-10-16T13:42:22;0.40;;;0.40;;
12363;SDS011;6246;50.826;4.712;2022-10-16T13:44:49;0.40;;;0.40;;
12363;SDS011;6246;50.826;4.712;2022-10-16T13:49:45;0.57;;;0.50;;
12363;SDS011;6246;50.826;4.712;2022-10-16T13:52:16;0.73;;;0.40;;
12363;SDS011;6246;50.826;4.712;2022-10-16T13:54:43;0.67;;;0.63;;
12363;SDS011;6246;50.826;4.712;2022-10-16T13:57:12;1.20;;;0.40;;
12363;SDS011;6246;50.826;4.712;2022-10-16T13:59:38;0.37;;;0.37;;
12363;SDS011;6246;50.826;4.712;2022-10-16T14:02:37;0.43;;;0.43;;
12363;SDS011;6246;50.826;4.712;2022-10-16T14:04:59;0.40;;;0.40;;
12363;SDS011;6246;50.826;4.712;2022-10-16T14:07:27;0.50;;;0.50;;
12363;SDS011;6246;50.826;4.712;2022-10-16T14:09:53;0.57;;;0.40;;
12363;SDS011;6246;50.826;4.712;2022-10-16T14:12:20;0.80;;;0.60;;
12363;SDS011;6246;50.826;4.712;2022-10-16T14:14:48;0.50;;;0.50;;
12363;SDS011;6246;50.826;4.712;2022-10-16T14:17:16;0.63;;;0.50;;
12363;SDS011;6246;50.826;4.712;2022-10-16T14:19:47;0.43;;;0.30;;
12363;SDS011;6246;50.826;4.712;2022-10-16T14:22:33;0.90;;;0.50;;
12363;SDS011;6246;50.826;4.712;2022-10-16T14:24:59;0.30;;;0.30;;
12363;SDS011;6246;50.826;4.712;2022-10-16T14:27:28;0.73;;;0.50;;
12363;SDS011;6246;50.826;4.712;2022-10-16T14:32:33;0.53;;;0.53;;
12363;SDS011;6246;50.826;4.712;2022-10-16T14:34:59;0.70;;;0.40;;
12363;SDS011;6246;50.826;4.712;2022-10-16T14:37:26;0.40;;;0.40;;
12363;SDS011;6246;50.826;4.712;2022-10-16T14:39:53;0.60;;;0.53;;
12363;SDS011;6246;50.826;4.712;2022-10-16T14:42:20;0.60;;;0.40;;
12363;SDS011;6246;50.826;4.712;2022-10-16T14:44:49;0.43;;;0.43;;
12363;SDS011;6246;50.826;4.712;2022-10-16T14:47:18;0.80;;;0.50;;
12363;SDS011;6246;50.826;4.712;2022-10-16T14:49:50;1.00;;;0.50;;
12363;SDS011;6246;50.826;4.712;2022-10-16T14:52:16;0.33;;;0.33;;
12363;SDS011;6246;50.826;4.712;2022-10-16T14:54:42;0.40;;;0.40;;
12363;SDS011;6246;50.826;4.712;2022-10-16T14:57:18;4.13;;;0.60;;
12363;SDS011;6246;50.826;4.712;2022-10-16T14:59:44;0.50;;;0.50;;
12363;SDS011;6246;50.826;4.712;2022-10-16T15:02:20;0.80;;;0.60;;
12363;SDS011;6246;50.826;4.712;2022-10-16T15:04:49;0.30;;;0.30;;
12363;SDS011;6246;50.826;4.712;2022-10-16T15:07:15;0.50;;;0.30;;
12363;SDS011;6246;50.826;4.712;2022-10-16T15:09:41;0.70;;;0.60;;
12363;SDS011;6246;50.826;4.712;2022-10-16T15:12:07;0.67;;;0.57;;
12363;SDS011;6246;50.826;4.712;2022-10-16T15:14:33;0.47;;;0.47;;
12363;SDS011;6246;50.826;4.712;2022-10-16T15:16:59;0.57;;;0.57;;
12363;SDS011;6246;50.826;4.712;2022-10-16T15:19:25;0.43;;;0.43;;
12363;SDS011;6246;50.826;4.712;2022-10-16T15:21:51;0.57;;;0.57;;
12363;SDS011;6246;50.826;4.712;2022-10-16T15:24:17;0.30;;;0.30;;
12363;SDS011;6246;50.826;4.712;2022-10-16T15:26:43;0.50;;;0.43;;
12363;SDS011;6246;50.826;4.712;2022-10-16T15:29:11;0.50;;;0.50;;
12363;SDS011;6246;50.826;4.712;2022-10-16T15:31:37;0.40;;;0.40;;
12363;SDS011;6246;50.826;4.712;2022-10-16T15:34:03;0.40;;;0.30;;
12363;SDS011;6246;50.826;4.712;2022-10-16T15:36:34;0.30;;;0.30;;
12363;SDS011;6246;50.826;4.712;2022-10-16T15:39:02;0.30;;;0.30;;
12363;SDS011;6246;50.826;4.712;2022-10-16T15:41:28;0.30;;;0.30;;
12363;SDS011;6246;50.826;4.712;2022-10-16T15:43:54;0.43;;;0.20;;
12363;SDS011;6246;50.826;4.712;2022-10-16T15:46:21;0.47;;;0.40;;
12363;SDS011;6246;50.826;4.712;2022-10-16T15:48:48;0.50;;;0.50;;
12363;SDS011;6246;50.826;4.712;2022-10-16T15:51:14;0.40;;;0.40;;
12363;SDS011;6246;50.826;4.712;2022-10-16T15:53:40;1.73;;;0.43;;
12363;SDS011;6246;50.826;4.712;2022-10-16T15:56:06;0.43;;;0.43;;
12363;SDS011;6246;50.826;4.712;2022-10-16T15:58:33;0.30;;;0.30;;
12363;SDS011;6246;50.826;4.712;2022-10-16T16:00:59;0.40;;;0.40;;
12363;SDS011;6246;50.826;4.712;2022-10-16T16:03:26;0.53;;;0.50;;
12363;SDS011;6246;50.826;4.712;2022-10-16T16:05:52;0.50;;;0.50;;
12363;SDS011;6246;50.826;4.712;2022-10-16T16:08:18;0.37;;;0.30;;
12363;SDS011;6246;50.826;4.712;2022-10-16T16:10:44;0.40;;;0.40;;
12363;SDS011;6246;50.826;4.712;2022-10-16T16:13:10;0.30;;;0.30;;
12363;SDS011;6246;50.826;4.712;2022-10-16T16:15:39;0.93;;;0.57;;
12363;SDS011;6246;50.826;4.712;2022-10-16T16:18:06;0.57;;;0.57;;
12363;SDS011;6246;50.826;4.712;2022-10-16T16:20:32;0.47;;;0.47;;
12363;SDS011;6246;50.826;4.712;2022-10-16T16:22:58;0.83;;;0.50;;
12363;SDS011;6246;50.826;4.712;2022-10-16T16:25:23;0.50;;;0.50;;
12363;SDS011;6246;50.826;4.712;2022-10-16T16:27:50;0.40;;;0.40;;
12363;SDS011;6246;50.826;4.712;2022-10-16T16:30:16;0.47;;;0.43;;
12363;SDS011;6246;50.826;4.712;2022-10-16T16:32:44;0.43;;;0.43;;
12363;SDS011;6246;50.826;4.712;2022-10-16T16:35:10;0.87;;;0.60;;
12363;SDS011;6246;50.826;4.712;2022-10-16T16:37:36;0.70;;;0.70;;
12363;SDS011;6246;50.826;4.712;2022-10-16T16:40:02;0.57;;;0.50;;